createdAt,value
2019-05-15T00:02:10.885Z,69.00
2019-05-15T00:04:38.330Z,69.30
2019-05-15T00:07:04.159Z,69.20
2019-05-15T00:09:31.746Z,69.50
2019-05-15T00:11:59.379Z,69.80
2019-05-15T00:14:28.854Z,70.30
2019-05-15T00:16:55.354Z,70.20
2019-05-15T00:19:22.984Z,70.50
2019-05-15T00:21:51.346Z,71.20
2019-05-15T00:24:18.939Z,70.70
2019-05-15T00:26:48.142Z,71.80
2019-05-15T00:29:19.041Z,71.80
2019-05-15T00:31:43.106Z,71.20
2019-05-15T00:34:12.832Z,71.20
2019-05-15T00:36:38.487Z,71.40
2019-05-15T00:39:08.490Z,71.60
2019-05-15T00:41:47.585Z,71.90
2019-05-15T00:44:01.755Z,72.10
2019-05-15T00:46:29.360Z,72.40
2019-05-15T00:48:59.036Z,73.00
2019-05-15T00:51:24.502Z,72.40
2019-05-15T00:53:52.104Z,72.50
2019-05-15T00:56:19.687Z,72.50
2019-05-15T00:58:48.241Z,72.70
2019-05-15T01:01:15.604Z,72.70
2019-05-15T01:03:43.178Z,73.00
2019-05-15T01:06:11.832Z,73.50
2019-05-15T01:08:39.529Z,73.50
2019-05-15T01:11:09.158Z,73.70
2019-05-15T01:13:34.581Z,74.40
2019-05-15T01:16:02.149Z,73.70
2019-05-15T01:18:29.719Z,74.10
2019-05-15T01:20:58.653Z,73.50
2019-05-15T01:23:24.888Z,73.60
2019-05-15T01:25:53.223Z,75.00
2019-05-15T01:28:20.843Z,74.00
2019-05-15T01:30:49.174Z,74.50
2019-05-15T01:33:18.744Z,74.40
2019-05-15T01:35:44.346Z,74.70
2019-05-15T01:38:12.685Z,76.10
2019-05-15T01:40:40.284Z,76.00
2019-05-15T01:43:09.313Z,75.10
2019-05-15T01:45:39.050Z,75.10
2019-05-15T01:48:03.810Z,75.20
2019-05-15T01:50:31.385Z,75.40
2019-05-15T01:52:58.953Z,75.90
2019-05-15T01:55:28.394Z,75.40
2019-05-15T01:57:54.906Z,75.70
2019-05-15T02:00:22.478Z,75.60
2019-05-15T02:02:50.070Z,75.70
2019-05-15T02:05:18.797Z,75.80
2019-05-15T02:07:47.796Z,75.90
2019-05-15T02:10:13.354Z,75.90
2019-05-15T02:12:40.924Z,76.20
2019-05-15T02:15:09.296Z,76.50
2019-05-15T02:17:38.923Z,76.40
2019-05-15T02:20:04.483Z,76.40
2019-05-15T02:22:32.062Z,76.50
2019-05-15T02:25:00.241Z,76.70
2019-05-15T02:27:29.397Z,76.90
2019-05-15T02:30:13.079Z,77.00
2019-05-15T02:32:22.984Z,77.50
2019-05-15T02:34:50.557Z,76.80
2019-05-15T02:37:19.291Z,76.70
2019-05-15T02:39:45.720Z,76.80
2019-05-15T02:42:13.371Z,77.00
2019-05-15T02:44:41.529Z,77.10
2019-05-15T02:47:09.358Z,77.70
2019-05-15T02:49:39.605Z,77.00
2019-05-15T02:52:04.341Z,77.00
2019-05-15T02:54:31.912Z,77.20
2019-05-15T02:56:59.517Z,77.90
2019-05-15T02:59:29.078Z,77.40
2019-05-15T03:01:54.781Z,76.70
2019-05-15T03:04:22.365Z,76.80
2019-05-15T03:06:50.024Z,77.00
2019-05-15T03:09:18.955Z,77.60
2019-05-15T03:11:49.216Z,77.60
2019-05-15T03:14:13.705Z,77.70
2019-05-15T03:16:41.323Z,78.40
2019-05-15T03:19:10.042Z,77.80
2019-05-15T03:21:38.825Z,78.00
2019-05-15T03:24:04.052Z,77.50
2019-05-15T03:26:31.630Z,77.50
2019-05-15T03:28:59.299Z,77.70
2019-05-15T03:31:46.351Z,78.30
2019-05-15T03:33:55.051Z,78.30
2019-05-15T03:36:24.403Z,77.70
2019-05-15T03:38:50.398Z,77.70
2019-05-15T03:41:19.549Z,78.00
2019-05-15T03:43:45.589Z,78.40
2019-05-15T03:46:13.182Z,78.70
2019-05-15T03:48:40.879Z,79.70
2019-05-15T03:51:09.184Z,79.20
2019-05-15T03:53:39.554Z,79.20
2019-05-15T03:56:03.652Z,79.40
2019-05-15T03:58:31.253Z,79.80
2019-05-15T04:01:00.260Z,79.20
2019-05-15T04:03:29.658Z,79.10
2019-05-15T04:05:53.992Z,79.40
2019-05-15T04:08:21.638Z,78.80
2019-05-15T04:10:49.968Z,79.30
2019-05-15T04:13:19.632Z,79.30
2019-05-15T04:15:45.146Z,79.60
2019-05-15T04:18:12.722Z,80.30
2019-05-15T04:20:41.019Z,79.80
2019-05-15T04:23:10.251Z,79.00
2019-05-15T04:25:35.475Z,79.00
2019-05-15T04:28:03.813Z,80.10
2019-05-15T04:30:32.099Z,80.10
2019-05-15T04:32:59.683Z,79.40
2019-05-15T04:35:28.891Z,80.30
2019-05-15T04:37:54.840Z,79.60
2019-05-15T04:40:22.450Z,79.50
2019-05-15T04:42:50.398Z,79.40
2019-05-15T04:45:19.416Z,79.50
2019-05-15T04:47:45.539Z,79.70
2019-05-15T04:50:13.162Z,80.00
2019-05-15T04:52:43.212Z,80.10
2019-05-15T04:55:10.264Z,80.80
2019-05-15T04:57:39.483Z,80.20
2019-05-15T05:00:09.711Z,80.60
2019-05-15T05:02:34.577Z,80.60
2019-05-15T05:05:02.146Z,80.80
2019-05-15T05:07:29.759Z,80.70
2019-05-15T05:09:59.533Z,80.60
2019-05-15T05:12:24.980Z,81.10
2019-05-15T05:14:52.562Z,80.30
2019-05-15T05:17:20.144Z,80.80
2019-05-15T05:19:51.249Z,80.00
2019-05-15T05:22:15.909Z,79.80
2019-05-15T05:24:43.481Z,79.30
2019-05-15T05:27:11.073Z,79.10
2019-05-15T05:29:38.754Z,79.20
2019-05-15T05:32:08.980Z,79.60
2019-05-15T05:34:34.240Z,79.70
2019-05-15T05:37:02.589Z,82.00
2019-05-15T05:39:30.702Z,81.20
2019-05-15T05:41:59.052Z,79.70
2019-05-15T05:44:28.948Z,79.70
2019-05-15T05:46:54.258Z,78.80
2019-05-15T05:49:21.843Z,78.30
2019-05-15T05:51:49.418Z,77.60
2019-05-15T05:54:18.190Z,77.00
2019-05-15T05:56:44.622Z,77.80
2019-05-15T05:59:12.595Z,77.00
2019-05-15T06:01:43.993Z,76.30
2019-05-15T06:04:07.910Z,75.90
2019-05-15T06:06:35.385Z,75.90
2019-05-15T06:09:02.959Z,75.10
2019-05-15T06:11:31.303Z,74.90
2019-05-15T06:13:59.809Z,74.10
2019-05-15T06:16:28.355Z,72.90
2019-05-15T06:18:55.739Z,72.50
2019-05-15T06:21:23.354Z,72.40
2019-05-15T06:23:55.661Z,71.30
2019-05-15T06:26:19.861Z,71.30
2019-05-15T06:28:48.984Z,71.20
2019-05-15T06:31:15.083Z,70.60
2019-05-15T06:33:42.704Z,70.60
2019-05-15T06:36:10.594Z,69.90
2019-05-15T06:38:39.243Z,69.90
2019-05-15T06:41:08.518Z,69.60
2019-05-15T06:43:33.751Z,69.50
2019-05-15T06:46:02.091Z,67.70
2019-05-15T06:48:30.037Z,67.70
2019-05-15T06:50:58.034Z,66.90
2019-05-15T06:53:25.194Z,65.90
2019-05-15T06:55:52.830Z,65.30
2019-05-15T06:58:20.409Z,64.60
2019-05-15T07:00:48.727Z,64.00
2019-05-15T07:03:23.997Z,64.10
2019-05-15T07:05:44.017Z,63.40
2019-05-15T07:08:11.593Z,63.30
2019-05-15T07:10:39.991Z,63.70
2019-05-15T07:13:08.858Z,62.80
2019-05-15T07:15:35.167Z,62.50
2019-05-15T07:18:02.810Z,62.50
2019-05-15T07:20:30.394Z,61.80
2019-05-15T07:22:58.653Z,61.00
2019-05-15T07:25:25.601Z,60.70
2019-05-15T07:27:53.189Z,60.70
2019-05-15T07:30:20.769Z,60.30
2019-05-15T07:32:49.178Z,58.50
2019-05-15T07:35:19.013Z,58.90
2019-05-15T07:37:44.356Z,58.40
2019-05-15T07:40:12.480Z,58.30
2019-05-15T07:42:40.063Z,58.20
2019-05-15T07:45:10.525Z,56.90
2019-05-15T07:47:38.737Z,56.60
2019-05-15T07:50:08.444Z,56.30
2019-05-15T07:52:33.337Z,55.80
2019-05-15T07:55:02.099Z,54.40
2019-05-15T07:57:30.072Z,54.40
2019-05-15T07:59:58.830Z,53.70
2019-05-15T08:02:25.655Z,53.60
2019-05-15T08:04:53.237Z,53.60
2019-05-15T08:07:20.824Z,52.80
2019-05-15T08:09:48.803Z,51.70
2019-05-15T08:12:16.064Z,51.20
2019-05-15T08:14:43.657Z,50.00
2019-05-15T08:17:11.313Z,50.10
2019-05-15T08:19:38.901Z,49.70
2019-05-15T08:22:08.752Z,48.30
2019-05-15T08:24:34.675Z,48.20
2019-05-15T08:27:02.254Z,48.30
2019-05-15T08:29:30.912Z,48.00
2019-05-15T08:31:58.997Z,48.00
2019-05-15T08:34:28.138Z,48.70
2019-05-15T08:36:53.738Z,48.40
2019-05-15T08:39:22.080Z,48.90
2019-05-15T08:41:49.658Z,48.90
2019-05-15T08:44:18.644Z,47.80
2019-05-15T08:46:47.832Z,47.30
2019-05-15T08:49:13.768Z,46.30
2019-05-15T08:51:41.841Z,46.30
2019-05-15T08:54:09.422Z,44.50
2019-05-15T08:56:39.427Z,43.90
2019-05-15T08:59:05.403Z,43.80
2019-05-15T09:01:32.985Z,43.30
2019-05-15T09:04:00.563Z,43.80
2019-05-15T09:06:29.208Z,43.90
2019-05-15T09:08:58.347Z,43.00
2019-05-15T09:11:23.449Z,42.00
2019-05-15T09:13:53.701Z,41.70
2019-05-15T09:16:18.694Z,41.60
2019-05-15T09:18:48.354Z,41.70
2019-05-15T09:21:14.643Z,41.60
2019-05-15T09:23:43.003Z,40.80
2019-05-15T09:26:10.636Z,40.80
2019-05-15T09:28:39.157Z,41.70
2019-05-15T09:31:08.205Z,40.90
2019-05-15T09:33:35.237Z,40.20
2019-05-15T09:36:02.820Z,40.20
2019-05-15T09:38:30.481Z,40.40
2019-05-15T09:40:58.626Z,40.60
2019-05-15T09:43:25.648Z,40.10
2019-05-15T09:45:53.305Z,40.20
2019-05-15T09:48:20.925Z,40.60
2019-05-15T09:50:49.605Z,39.60
2019-05-15T09:53:18.803Z,39.60
2019-05-15T09:55:45.005Z,38.80
2019-05-15T09:58:12.590Z,38.80
2019-05-15T10:00:40.566Z,39.50
2019-05-15T10:03:09.543Z,38.80
2019-05-15T10:05:35.742Z,39.10
2019-05-15T10:08:03.367Z,38.70
2019-05-15T10:10:30.949Z,39.00
2019-05-15T10:12:59.451Z,38.80
2019-05-15T10:15:26.220Z,39.10
2019-05-15T10:17:54.334Z,38.70
2019-05-15T10:20:21.969Z,38.70
2019-05-15T10:22:49.545Z,38.30
2019-05-15T10:25:19.002Z,37.80
2019-05-15T10:27:44.767Z,37.30
2019-05-15T10:30:12.352Z,35.60
2019-05-15T10:32:40.520Z,34.60
2019-05-15T10:35:23.687Z,35.80
2019-05-15T10:37:35.721Z,35.80
2019-05-15T10:40:03.316Z,36.20
2019-05-15T10:42:31.484Z,35.60
2019-05-15T10:44:59.071Z,34.90
2019-05-15T10:47:29.106Z,33.70
2019-05-15T10:49:55.035Z,33.50
2019-05-15T10:52:23.383Z,33.10
2019-05-15T10:54:51.871Z,33.00
2019-05-15T10:57:19.455Z,33.40
2019-05-15T10:59:47.903Z,34.80
2019-05-15T11:02:15.437Z,34.70
2019-05-15T11:04:43.018Z,33.60
2019-05-15T11:07:10.614Z,32.90
2019-05-15T11:09:40.661Z,33.70
2019-05-15T11:12:08.609Z,33.40
2019-05-15T11:14:34.193Z,33.20
2019-05-15T11:17:01.797Z,33.60
2019-05-15T11:19:35.656Z,34.70
2019-05-15T11:21:58.370Z,34.70
2019-05-15T11:24:25.380Z,35.30
2019-05-15T11:26:56.145Z,33.30
2019-05-15T11:29:21.395Z,33.20
2019-05-15T11:31:48.981Z,32.80
2019-05-15T11:34:18.590Z,32.80
2019-05-15T11:36:44.191Z,32.40
2019-05-15T11:39:11.772Z,32.20
2019-05-15T11:41:40.119Z,31.80
2019-05-15T11:44:07.761Z,31.70
2019-05-15T11:46:35.331Z,31.40
2019-05-15T11:49:02.917Z,30.10
2019-05-15T11:51:30.548Z,29.50
2019-05-15T11:53:58.774Z,29.60
2019-05-15T11:56:25.717Z,29.50
2019-05-15T11:58:53.322Z,28.70
2019-05-15T12:01:20.899Z,28.80
2019-05-15T12:03:48.528Z,29.00
2019-05-15T12:06:21.878Z,29.40
2019-05-15T12:08:44.459Z,29.30
2019-05-15T12:11:30.841Z,28.40
2019-05-15T12:13:40.921Z,28.30
2019-05-15T12:16:09.257Z,28.30
2019-05-15T12:18:38.849Z,28.20
2019-05-15T12:21:04.451Z,27.80
2019-05-15T12:23:32.086Z,27.70
2019-05-15T12:26:00.447Z,27.60
2019-05-15T12:28:29.594Z,27.50
2019-05-15T12:30:59.352Z,27.70
2019-05-15T12:33:23.275Z,27.60
2019-05-15T12:35:51.220Z,27.50
2019-05-15T12:38:18.966Z,27.30
2019-05-15T13:00:30.340Z,27.00
2019-05-15T13:02:59.272Z,27.30
2019-05-15T13:05:28.543Z,27.50
2019-05-15T13:07:53.501Z,27.40
2019-05-15T13:10:21.855Z,27.70
2019-05-15T13:13:00.499Z,27.70
2019-05-15T13:15:19.012Z,27.60
2019-05-15T13:17:44.659Z,27.50
2019-05-15T13:20:13.405Z,27.70
2019-05-15T13:22:41.032Z,27.70
2019-05-15T13:25:09.389Z,27.90
2019-05-15T13:27:38.164Z,27.90
2019-05-15T13:30:04.594Z,28.00
2019-05-15T13:32:32.725Z,27.80
2019-05-15T13:35:00.294Z,28.20
2019-05-15T13:37:30.799Z,27.90
2019-05-15T13:39:58.528Z,28.00
2019-05-15T13:42:23.650Z,28.10
2019-05-15T13:44:52.304Z,28.40
2019-05-15T13:47:19.922Z,28.10
2019-05-15T13:49:48.072Z,28.00
2019-05-15T13:52:15.078Z,28.00
2019-05-15T13:54:42.708Z,27.60
2019-05-15T13:57:10.298Z,27.60
2019-05-15T13:59:39.077Z,28.00
2019-05-15T14:02:05.480Z,27.90
2019-05-15T14:04:33.834Z,27.70
2019-05-15T14:07:01.461Z,27.60
2019-05-15T14:09:33.843Z,27.40
2019-05-15T14:11:59.432Z,27.00
2019-05-15T14:14:25.609Z,26.70
2019-05-15T14:16:53.185Z,26.70
2019-05-15T14:19:21.538Z,27.00
2019-05-15T14:21:49.190Z,27.00
2019-05-15T14:24:18.347Z,26.90
2019-05-15T14:26:44.336Z,26.40
2019-05-15T14:29:12.798Z,26.30
2019-05-15T14:31:40.378Z,26.40
2019-05-15T14:34:08.850Z,26.00
2019-05-15T14:36:36.358Z,26.10
2019-05-15T14:39:04.721Z,26.00
2019-05-15T14:41:32.306Z,26.00
2019-05-15T14:44:13.159Z,26.20
2019-05-15T14:46:27.518Z,26.30
2019-05-15T14:48:55.161Z,26.20
2019-05-15T14:51:22.754Z,26.00
2019-05-15T14:53:50.376Z,26.00
2019-05-15T14:56:18.516Z,25.20
2019-05-15T14:58:47.889Z,25.60
2019-05-15T15:01:13.458Z,25.30
2019-05-15T15:03:40.855Z,25.60
2019-05-15T15:06:09.195Z,25.10
2019-05-15T15:08:36.786Z,25.10
2019-05-15T15:11:05.157Z,24.60
2019-05-15T15:13:32.778Z,24.50
2019-05-15T15:16:01.406Z,24.70
2019-05-15T15:18:29.034Z,24.90
2019-05-15T15:20:57.996Z,24.80
2019-05-15T15:23:24.276Z,25.00
2019-05-15T15:25:51.857Z,24.30
2019-05-15T15:28:20.209Z,24.70
2019-05-15T15:30:48.653Z,24.20
2019-05-15T15:33:15.433Z,24.20
2019-05-15T15:35:43.022Z,23.50
2019-05-15T15:38:13.014Z,23.50
2019-05-15T15:40:38.802Z,23.10
2019-05-15T15:43:08.590Z,23.60
2019-05-15T15:45:34.288Z,24.10
2019-05-15T15:48:01.868Z,24.10
2019-05-15T15:50:30.267Z,24.30
2019-05-15T15:52:59.330Z,24.20
2019-05-15T15:55:25.433Z,23.90
2019-05-15T15:57:53.067Z,23.40
2019-05-15T16:00:20.642Z,23.70
2019-05-15T16:02:48.809Z,23.10
2019-05-15T16:05:19.037Z,22.90
2019-05-15T16:07:44.615Z,22.90
2019-05-15T16:10:12.195Z,22.20
2019-05-15T16:12:40.213Z,21.80
2019-05-15T16:15:08.865Z,22.30
2019-05-15T16:17:35.366Z,22.30
2019-05-15T16:20:03.762Z,22.60
2019-05-15T16:22:32.091Z,22.50
2019-05-15T16:25:02.395Z,22.50
2019-05-15T16:27:28.686Z,22.70
2019-05-15T16:29:55.687Z,23.00
2019-05-15T16:32:23.360Z,22.90
2019-05-15T16:34:50.962Z,23.20
2019-05-15T16:37:18.859Z,22.60
2019-05-15T16:39:46.213Z,22.20
2019-05-15T16:42:13.797Z,22.10
2019-05-15T16:44:41.377Z,22.10
2019-05-15T16:47:09.014Z,22.30
2019-05-15T16:49:38.896Z,22.00
2019-05-15T16:52:04.196Z,21.90
2019-05-15T16:54:49.019Z,21.80
2019-05-15T16:57:14.618Z,21.90
2019-05-15T16:59:42.289Z,22.20
2019-05-15T17:02:10.783Z,22.40
2019-05-15T17:04:38.400Z,22.20
2019-05-15T17:07:05.954Z,22.20
2019-05-15T17:09:33.613Z,22.70
2019-05-15T17:12:01.209Z,22.90
2019-05-15T17:14:28.947Z,22.90
2019-05-15T17:16:58.441Z,22.80
2019-05-15T17:19:23.993Z,22.90
2019-05-15T17:21:51.573Z,22.90
2019-05-15T17:24:19.202Z,23.10
2019-05-15T17:26:48.435Z,23.10
2019-05-15T17:29:14.381Z,23.20
2019-05-15T17:31:42.011Z,23.40
2019-05-15T17:34:09.618Z,23.90
2019-05-15T17:36:38.262Z,24.40
2019-05-15T17:39:05.843Z,24.70
2019-05-15T17:41:33.421Z,24.60
2019-05-15T17:44:01.773Z,25.60
2019-05-15T17:46:29.903Z,25.50
2019-05-15T17:49:06.948Z,25.70
2019-05-15T17:51:25.191Z,25.90
2019-05-15T17:53:52.775Z,25.90
2019-05-15T17:56:21.175Z,26.10
2019-05-15T17:58:48.896Z,26.00
2019-05-15T18:01:18.732Z,26.50
2019-05-15T18:03:44.049Z,27.00
2019-05-15T18:06:11.632Z,27.40
2019-05-15T18:08:39.251Z,28.00
2019-05-15T18:11:08.059Z,28.10
2019-05-15T18:13:34.425Z,28.40
2019-05-15T18:16:04.011Z,28.70
2019-05-15T18:18:29.644Z,29.10
2019-05-15T18:20:58.098Z,29.30
2019-05-15T18:23:24.827Z,30.00
2019-05-15T18:25:53.199Z,30.40
2019-05-15T18:28:20.859Z,30.30
2019-05-15T18:30:48.450Z,30.70
2019-05-15T18:33:18.394Z,31.10
2019-05-15T18:35:43.675Z,31.40
2019-05-15T18:38:11.291Z,31.90
2019-05-15T18:40:38.880Z,32.30
2019-05-15T18:43:09.817Z,33.30
2019-05-15T18:45:35.629Z,33.30
2019-05-15T18:48:03.229Z,33.30
2019-05-15T18:50:31.364Z,33.60
2019-05-15T18:52:59.051Z,33.90
2019-05-15T18:55:27.396Z,35.00
2019-05-15T18:57:55.451Z,35.00
2019-05-15T19:00:23.027Z,34.70
2019-05-15T19:02:50.622Z,35.40
2019-05-15T19:05:19.897Z,35.40
2019-05-15T19:07:48.710Z,35.40
2019-05-15T19:10:18.663Z,35.70
2019-05-15T19:12:45.400Z,36.00
2019-05-15T19:15:12.985Z,36.30
2019-05-15T19:17:40.578Z,36.70
2019-05-15T19:20:08.595Z,37.00
2019-05-15T19:22:35.788Z,37.20
2019-05-15T19:25:03.378Z,37.60
2019-05-15T19:27:32.047Z,38.50
2019-05-15T19:29:59.631Z,38.40
2019-05-15T19:32:27.995Z,39.90
2019-05-15T19:34:55.605Z,40.50
2019-05-15T19:37:23.207Z,39.60
2019-05-15T19:39:50.791Z,40.40
2019-05-15T19:42:19.188Z,40.40
2019-05-15T19:44:48.477Z,41.00
2019-05-15T19:47:14.348Z,40.20
2019-05-15T19:49:41.979Z,40.50
2019-05-15T19:52:09.566Z,41.40
2019-05-15T19:54:37.849Z,41.10
2019-05-15T19:57:05.128Z,41.50
2019-05-15T19:59:33.280Z,42.00
2019-05-15T20:02:00.861Z,42.90
2019-05-15T20:04:28.471Z,42.60
2019-05-15T20:06:56.043Z,42.80
2019-05-15T20:09:23.672Z,43.10
2019-05-15T20:11:52.018Z,43.70
2019-05-15T20:14:19.603Z,43.60
2019-05-15T20:16:48.103Z,43.90
2019-05-15T20:19:14.808Z,44.10
2019-05-15T20:21:42.389Z,44.40
2019-05-15T20:24:09.997Z,44.70
2019-05-15T20:26:38.029Z,45.50
2019-05-15T20:29:08.901Z,45.10
2019-05-15T20:31:34.218Z,45.70
2019-05-15T20:34:05.796Z,45.80
2019-05-15T20:36:29.869Z,45.40
2019-05-15T20:38:58.721Z,45.70
2019-05-15T20:41:24.618Z,46.10
2019-05-15T20:44:08.684Z,46.40
2019-05-15T20:46:34.148Z,46.70
2019-05-15T20:49:01.731Z,47.10
2019-05-15T20:51:29.707Z,47.50
2019-05-15T20:53:57.826Z,47.80
2019-05-15T20:56:24.885Z,48.90
2019-05-15T20:58:52.961Z,48.70
2019-05-15T21:01:20.545Z,49.10
2019-05-15T21:03:50.418Z,49.50
2019-05-15T21:06:17.744Z,50.20
2019-05-15T21:08:43.624Z,50.50
2019-05-15T21:11:12.108Z,50.80
2019-05-15T21:13:39.282Z,50.90
2019-05-15T21:16:08.339Z,51.20
2019-05-15T21:18:34.610Z,51.30
2019-05-15T21:21:02.243Z,51.60
2019-05-15T21:23:29.827Z,51.70
2019-05-15T21:25:59.078Z,52.20
2019-05-15T21:28:27.762Z,53.70
2019-05-15T21:30:53.401Z,53.60
2019-05-15T21:33:20.985Z,53.80
2019-05-15T21:35:48.596Z,53.20
2019-05-15T21:38:18.385Z,54.40
2019-05-15T21:40:44.888Z,54.40
2019-05-15T21:43:12.477Z,54.10
2019-05-15T21:45:40.044Z,55.20
2019-05-15T21:48:09.012Z,54.80
2019-05-15T21:50:36.064Z,55.60
2019-05-15T21:53:03.640Z,55.30
2019-05-15T21:55:31.269Z,55.60
2019-05-15T21:57:59.956Z,56.00
2019-05-15T22:00:29.799Z,56.30
2019-05-15T22:02:58.506Z,56.20
2019-05-15T22:05:25.039Z,56.30
2019-05-15T22:07:52.621Z,56.90
2019-05-15T22:10:21.378Z,56.70
2019-05-15T22:12:48.954Z,56.70
2019-05-15T22:15:18.997Z,56.80
2019-05-15T22:17:44.508Z,57.70
2019-05-15T22:20:13.134Z,57.40
2019-05-15T22:22:40.712Z,57.40
2019-05-15T22:25:11.390Z,57.60
2019-05-15T22:27:37.770Z,57.70
2019-05-15T22:30:03.478Z,58.00
2019-05-15T22:32:31.083Z,58.20
2019-05-15T22:35:09.856Z,58.90
2019-05-15T22:37:29.080Z,58.70
2019-05-15T22:39:54.988Z,59.10
2019-05-15T22:42:22.559Z,59.20
2019-05-15T22:44:51.191Z,59.70
2019-05-15T22:47:19.957Z,59.70
2019-05-15T22:49:48.438Z,60.00
2019-05-15T22:52:13.946Z,60.30
2019-05-15T22:54:41.532Z,60.50
2019-05-15T22:57:09.100Z,61.50
2019-05-15T22:59:38.291Z,60.80
2019-05-15T23:02:05.064Z,60.40
2019-05-15T23:04:32.637Z,60.30
2019-05-15T23:07:00.310Z,59.90
2019-05-15T23:09:28.441Z,59.70
2019-05-15T23:11:55.473Z,59.30
2019-05-15T23:14:23.070Z,58.70
2019-05-15T23:16:51.052Z,58.80
2019-05-15T23:19:19.007Z,58.90
2019-05-15T23:21:48.632Z,59.30
2019-05-15T23:24:14.503Z,58.90
2019-05-15T23:26:42.084Z,58.90
2019-05-15T23:29:09.656Z,59.00
2019-05-15T23:31:37.285Z,59.20
2019-05-15T23:34:04.854Z,60.10
2019-05-15T23:36:32.434Z,59.70
2019-05-15T23:39:00.084Z,59.90
2019-05-15T23:41:28.110Z,60.10
2019-05-15T23:43:55.239Z,60.60
2019-05-15T23:46:22.847Z,61.10
2019-05-15T23:48:50.433Z,61.40
2019-05-15T23:51:18.888Z,62.40
2019-05-15T23:53:48.265Z,61.90
2019-05-15T23:56:13.977Z,61.90
2019-05-15T23:58:41.946Z,61.90
